sensor_id;sensor_type;location;lat;lon;timestamp;P1;durP1;ratioP1;P2;durP2;ratioP2
13197;SDS011;6664;52.514;13.440;2023-03-01T00:02:23;11.20;;;5.60;;
13197;SDS011;6664;52.514;13.440;2023-03-01T00:05:09;9.83;;;5.60;;
13197;SDS011;6664;52.514;13.440;2023-03-01T00:07:55;9.87;;;5.07;;
13197;SDS011;6664;52.514;13.440;2023-03-01T00:10:42;7.57;;;5.90;;
13197;SDS011;6664;52.514;13.440;2023-03-01T00:13:47;7.43;;;5.10;;
13197;SDS011;6664;52.514;13.440;2023-03-01T00:16:37;11.60;;;5.40;;
13197;SDS011;6664;52.514;13.440;2023-03-01T00:19:24;6.60;;;4.17;;
13197;SDS011;6664;52.514;13.440;2023-03-01T00:22:09;9.23;;;6.00;;
13197;SDS011;6664;52.514;13.440;2023-03-01T00:24:55;6.87;;;4.73;;
13197;SDS011;6664;52.514;13.440;2023-03-01T00:27:41;6.00;;;4.80;;
13197;SDS011;6664;52.514;13.440;2023-03-01T00:30:29;5.23;;;3.63;;
13197;SDS011;6664;52.514;13.440;2023-03-01T00:33:15;6.80;;;4.70;;
13197;SDS011;6664;52.514;13.440;2023-03-01T00:36:03;8.90;;;4.60;;
13197;SDS011;6664;52.514;13.440;2023-03-01T00:38:49;5.33;;;4.83;;
13197;SDS011;6664;52.514;13.440;2023-03-01T00:41:37;10.13;;;5.07;;
13197;SDS011;6664;52.514;13.440;2023-03-01T00:44:23;6.00;;;5.07;;
13197;SDS011;6664;52.514;13.440;2023-03-01T00:47:09;6.83;;;5.10;;
13197;SDS011;6664;52.514;13.440;2023-03-01T00:49:54;6.87;;;4.83;;
13197;SDS011;6664;52.514;13.440;2023-03-01T00:52:44;6.40;;;4.60;;
13197;SDS011;6664;52.514;13.440;2023-03-01T00:55:30;8.20;;;5.23;;
13197;SDS011;6664;52.514;13.440;2023-03-01T00:58:15;6.83;;;4.87;;
13197;SDS011;6664;52.514;13.440;2023-03-01T01:01:01;5.43;;;4.00;;
13197;SDS011;6664;52.514;13.440;2023-03-01T01:04:03;9.57;;;4.60;;
13197;SDS011;6664;52.514;13.440;2023-03-01T01:06:50;8.77;;;5.10;;
13197;SDS011;6664;52.514;13.440;2023-03-01T01:09:35;10.03;;;5.50;;
13197;SDS011;6664;52.514;13.440;2023-03-01T01:12:21;5.27;;;4.20;;
13197;SDS011;6664;52.514;13.440;2023-03-01T01:15:07;6.37;;;4.70;;
13197;SDS011;6664;52.514;13.440;2023-03-01T01:17:52;7.60;;;4.50;;
13197;SDS011;6664;52.514;13.440;2023-03-01T01:20:38;8.73;;;4.83;;
13197;SDS011;6664;52.514;13.440;2023-03-01T01:23:24;8.30;;;5.80;;
13197;SDS011;6664;52.514;13.440;2023-03-01T01:26:11;11.80;;;6.70;;
13197;SDS011;6664;52.514;13.440;2023-03-01T01:29:18;8.50;;;4.83;;
13197;SDS011;6664;52.514;13.440;2023-03-01T01:32:03;4.90;;;4.27;;
13197;SDS011;6664;52.514;13.440;2023-03-01T01:34:51;11.70;;;5.00;;
13197;SDS011;6664;52.514;13.440;2023-03-01T01:37:37;7.83;;;4.50;;
13197;SDS011;6664;52.514;13.440;2023-03-01T01:40:26;14.00;;;5.70;;
13197;SDS011;6664;52.514;13.440;2023-03-01T01:43:22;9.27;;;5.20;;
13197;SDS011;6664;52.514;13.440;2023-03-01T01:49:03;11.33;;;6.20;;
13197;SDS011;6664;52.514;13.440;2023-03-01T01:52:14;8.77;;;5.37;;
13197;SDS011;6664;52.514;13.440;2023-03-01T01:55:06;6.80;;;5.10;;
13197;SDS011;6664;52.514;13.440;2023-03-01T01:57:56;11.10;;;5.00;;
13197;SDS011;6664;52.514;13.440;2023-03-01T02:00:47;10.50;;;4.47;;
13197;SDS011;6664;52.514;13.440;2023-03-01T02:03:33;4.90;;;4.30;;
13197;SDS011;6664;52.514;13.440;2023-03-01T02:06:26;10.27;;;5.53;;
13197;SDS011;6664;52.514;13.440;2023-03-01T02:09:32;6.70;;;4.83;;
13197;SDS011;6664;52.514;13.440;2023-03-01T02:12:23;11.47;;;6.17;;
13197;SDS011;6664;52.514;13.440;2023-03-01T02:15:11;7.60;;;5.00;;
13197;SDS011;6664;52.514;13.440;2023-03-01T02:17:57;8.13;;;4.73;;
13197;SDS011;6664;52.514;13.440;2023-03-01T02:23:47;7.03;;;4.93;;
13197;SDS011;6664;52.514;13.440;2023-03-01T02:26:35;7.33;;;5.40;;
13197;SDS011;6664;52.514;13.440;2023-03-01T02:29:27;13.30;;;5.60;;
13197;SDS011;6664;52.514;13.440;2023-03-01T02:32:13;9.47;;;5.60;;
13197;SDS011;6664;52.514;13.440;2023-03-01T02:35:00;10.47;;;5.67;;
13197;SDS011;6664;52.514;13.440;2023-03-01T02:37:47;9.10;;;5.83;;
13197;SDS011;6664;52.514;13.440;2023-03-01T02:40:35;7.30;;;5.30;;
13197;SDS011;6664;52.514;13.440;2023-03-01T02:43:25;9.40;;;5.80;;
13197;SDS011;6664;52.514;13.440;2023-03-01T02:46:15;7.67;;;4.50;;
13197;SDS011;6664;52.514;13.440;2023-03-01T02:55:26;6.90;;;5.10;;
13197;SDS011;6664;52.514;13.440;2023-03-01T02:58:13;9.37;;;4.43;;
13197;SDS011;6664;52.514;13.440;2023-03-01T03:00:59;10.67;;;6.27;;
13197;SDS011;6664;52.514;13.440;2023-03-01T03:03:46;10.83;;;5.40;;
13197;SDS011;6664;52.514;13.440;2023-03-01T03:06:32;6.87;;;4.90;;
13197;SDS011;6664;52.514;13.440;2023-03-01T03:09:18;10.07;;;5.10;;
13197;SDS011;6664;52.514;13.440;2023-03-01T03:12:04;8.77;;;5.30;;
13197;SDS011;6664;52.514;13.440;2023-03-01T03:14:54;9.27;;;5.33;;
13197;SDS011;6664;52.514;13.440;2023-03-01T03:17:42;7.77;;;5.10;;
13197;SDS011;6664;52.514;13.440;2023-03-01T03:20:30;9.53;;;5.67;;
13197;SDS011;6664;52.514;13.440;2023-03-01T03:23:18;12.83;;;6.47;;
13197;SDS011;6664;52.514;13.440;2023-03-01T03:26:05;11.67;;;6.53;;
13197;SDS011;6664;52.514;13.440;2023-03-01T03:28:51;13.60;;;5.00;;
13197;SDS011;6664;52.514;13.440;2023-03-01T03:31:36;6.97;;;5.23;;
13197;SDS011;6664;52.514;13.440;2023-03-01T03:34:22;7.33;;;4.87;;
13197;SDS011;6664;52.514;13.440;2023-03-01T03:37:08;9.17;;;5.17;;
13197;SDS011;6664;52.514;13.440;2023-03-01T03:40:21;6.97;;;5.50;;
13197;SDS011;6664;52.514;13.440;2023-03-01T03:43:07;7.47;;;5.00;;
13197;SDS011;6664;52.514;13.440;2023-03-01T03:46:01;7.63;;;5.87;;
13197;SDS011;6664;52.514;13.440;2023-03-01T03:48:51;6.67;;;5.70;;
13197;SDS011;6664;52.514;13.440;2023-03-01T03:51:36;7.90;;;5.93;;
13197;SDS011;6664;52.514;13.440;2023-03-01T03:54:29;5.77;;;4.77;;
13197;SDS011;6664;52.514;13.440;2023-03-01T03:57:15;8.60;;;5.30;;
13197;SDS011;6664;52.514;13.440;2023-03-01T04:00:03;7.67;;;5.13;;
13197;SDS011;6664;52.514;13.440;2023-03-01T04:03:00;6.20;;;4.67;;
13197;SDS011;6664;52.514;13.440;2023-03-01T04:05:47;7.23;;;5.17;;
13197;SDS011;6664;52.514;13.440;2023-03-01T04:08:35;11.57;;;6.13;;
13197;SDS011;6664;52.514;13.440;2023-03-01T04:11:22;6.47;;;5.27;;
13197;SDS011;6664;52.514;13.440;2023-03-01T04:14:10;7.83;;;5.30;;
13197;SDS011;6664;52.514;13.440;2023-03-01T04:16:58;7.47;;;5.40;;
13197;SDS011;6664;52.514;13.440;2023-03-01T04:19:46;6.77;;;5.83;;
13197;SDS011;6664;52.514;13.440;2023-03-01T04:22:33;7.83;;;5.30;;
13197;SDS011;6664;52.514;13.440;2023-03-01T04:25:19;10.73;;;7.10;;
13197;SDS011;6664;52.514;13.440;2023-03-01T04:28:04;8.53;;;6.17;;
13197;SDS011;6664;52.514;13.440;2023-03-01T04:30:51;8.90;;;5.67;;
13197;SDS011;6664;52.514;13.440;2023-03-01T04:33:38;10.70;;;6.33;;
13197;SDS011;6664;52.514;13.440;2023-03-01T04:36:28;7.93;;;5.40;;
13197;SDS011;6664;52.514;13.440;2023-03-01T04:39:17;11.50;;;6.10;;
13197;SDS011;6664;52.514;13.440;2023-03-01T04:42:03;13.40;;;6.40;;
13197;SDS011;6664;52.514;13.440;2023-03-01T04:44:48;11.77;;;6.33;;
13197;SDS011;6664;52.514;13.440;2023-03-01T04:47:36;8.70;;;5.50;;
13197;SDS011;6664;52.514;13.440;2023-03-01T04:50:25;13.67;;;6.70;;
13197;SDS011;6664;52.514;13.440;2023-03-01T04:53:10;7.03;;;4.90;;
13197;SDS011;6664;52.514;13.440;2023-03-01T04:55:55;10.70;;;5.60;;
13197;SDS011;6664;52.514;13.440;2023-03-01T04:58:41;11.53;;;6.20;;
13197;SDS011;6664;52.514;13.440;2023-03-01T05:01:27;7.67;;;6.10;;
13197;SDS011;6664;52.514;13.440;2023-03-01T05:04:12;10.80;;;6.30;;
13197;SDS011;6664;52.514;13.440;2023-03-01T05:06:58;10.83;;;6.93;;
13197;SDS011;6664;52.514;13.440;2023-03-01T05:09:44;7.77;;;5.80;;
13197;SDS011;6664;52.514;13.440;2023-03-01T05:12:38;11.80;;;6.70;;
13197;SDS011;6664;52.514;13.440;2023-03-01T05:15:24;12.43;;;6.47;;
13197;SDS011;6664;52.514;13.440;2023-03-01T05:18:14;9.50;;;6.17;;
13197;SDS011;6664;52.514;13.440;2023-03-01T05:23:51;9.97;;;6.07;;
13197;SDS011;6664;52.514;13.440;2023-03-01T05:26:37;9.40;;;6.17;;
13197;SDS011;6664;52.514;13.440;2023-03-01T05:29:28;10.00;;;6.83;;
13197;SDS011;6664;52.514;13.440;2023-03-01T05:32:15;8.17;;;6.00;;
13197;SDS011;6664;52.514;13.440;2023-03-01T05:35:01;12.73;;;6.67;;
13197;SDS011;6664;52.514;13.440;2023-03-01T05:37:47;14.17;;;7.43;;
13197;SDS011;6664;52.514;13.440;2023-03-01T05:40:34;12.47;;;6.87;;
13197;SDS011;6664;52.514;13.440;2023-03-01T05:43:19;14.17;;;6.23;;
13197;SDS011;6664;52.514;13.440;2023-03-01T05:46:05;10.90;;;7.13;;
13197;SDS011;6664;52.514;13.440;2023-03-01T05:48:50;9.93;;;6.40;;
13197;SDS011;6664;52.514;13.440;2023-03-01T05:51:38;11.20;;;6.77;;
13197;SDS011;6664;52.514;13.440;2023-03-01T05:54:26;9.40;;;6.80;;
13197;SDS011;6664;52.514;13.440;2023-03-01T05:57:11;11.80;;;7.07;;
13197;SDS011;6664;52.514;13.440;2023-03-01T05:59:57;8.90;;;6.80;;
13197;SDS011;6664;52.514;13.440;2023-03-01T06:02:42;9.47;;;6.73;;
13197;SDS011;6664;52.514;13.440;2023-03-01T06:05:28;14.50;;;7.80;;
13197;SDS011;6664;52.514;13.440;2023-03-01T06:08:15;15.20;;;7.17;;
13197;SDS011;6664;52.514;13.440;2023-03-01T06:11:04;10.07;;;6.70;;
13197;SDS011;6664;52.514;13.440;2023-03-01T06:13:52;14.33;;;6.70;;
13197;SDS011;6664;52.514;13.440;2023-03-01T06:16:38;11.63;;;6.60;;
13197;SDS011;6664;52.514;13.440;2023-03-01T06:19:23;12.13;;;6.30;;
13197;SDS011;6664;52.514;13.440;2023-03-01T06:22:11;10.90;;;7.27;;
13197;SDS011;6664;52.514;13.440;2023-03-01T06:24:56;8.87;;;6.50;;
13197;SDS011;6664;52.514;13.440;2023-03-01T06:27:42;10.80;;;7.23;;
13197;SDS011;6664;52.514;13.440;2023-03-01T06:30:28;9.90;;;6.83;;
13197;SDS011;6664;52.514;13.440;2023-03-01T06:33:14;12.33;;;7.60;;
13197;SDS011;6664;52.514;13.440;2023-03-01T06:36:00;11.20;;;7.37;;
13197;SDS011;6664;52.514;13.440;2023-03-01T06:38:45;11.90;;;8.03;;
13197;SDS011;6664;52.514;13.440;2023-03-01T06:41:31;14.30;;;8.67;;
13197;SDS011;6664;52.514;13.440;2023-03-01T06:44:18;10.57;;;6.80;;
13197;SDS011;6664;52.514;13.440;2023-03-01T06:47:03;16.23;;;8.80;;
13197;SDS011;6664;52.514;13.440;2023-03-01T06:49:51;10.73;;;7.70;;
13197;SDS011;6664;52.514;13.440;2023-03-01T06:52:38;11.03;;;7.67;;
13197;SDS011;6664;52.514;13.440;2023-03-01T06:55:27;13.80;;;8.40;;
13197;SDS011;6664;52.514;13.440;2023-03-01T06:58:12;12.10;;;7.17;;
13197;SDS011;6664;52.514;13.440;2023-03-01T07:00:57;26.07;;;10.17;;
13197;SDS011;6664;52.514;13.440;2023-03-01T07:03:43;12.00;;;8.33;;
13197;SDS011;6664;52.514;13.440;2023-03-01T07:06:29;17.27;;;8.73;;
13197;SDS011;6664;52.514;13.440;2023-03-01T07:09:15;16.37;;;8.87;;
13197;SDS011;6664;52.514;13.440;2023-03-01T07:12:11;10.60;;;7.73;;
13197;SDS011;6664;52.514;13.440;2023-03-01T07:14:58;18.53;;;9.50;;
13197;SDS011;6664;52.514;13.440;2023-03-01T07:17:46;16.20;;;9.83;;
13197;SDS011;6664;52.514;13.440;2023-03-01T07:20:34;13.90;;;8.93;;
13197;SDS011;6664;52.514;13.440;2023-03-01T07:23:20;23.53;;;9.60;;
13197;SDS011;6664;52.514;13.440;2023-03-01T07:26:05;12.27;;;8.20;;
13197;SDS011;6664;52.514;13.440;2023-03-01T07:28:54;15.83;;;9.40;;
13197;SDS011;6664;52.514;13.440;2023-03-01T07:31:43;12.83;;;8.77;;
13197;SDS011;6664;52.514;13.440;2023-03-01T07:34:31;11.40;;;8.97;;
13197;SDS011;6664;52.514;13.440;2023-03-01T07:37:16;13.80;;;8.50;;
13197;SDS011;6664;52.514;13.440;2023-03-01T07:40:02;11.80;;;9.37;;
13197;SDS011;6664;52.514;13.440;2023-03-01T07:42:49;14.33;;;8.57;;
13197;SDS011;6664;52.514;13.440;2023-03-01T07:45:39;12.77;;;7.50;;
13197;SDS011;6664;52.514;13.440;2023-03-01T07:48:27;9.00;;;6.97;;
13197;SDS011;6664;52.514;13.440;2023-03-01T07:51:13;11.20;;;6.80;;
13197;SDS011;6664;52.514;13.440;2023-03-01T07:53:59;14.80;;;7.20;;
13197;SDS011;6664;52.514;13.440;2023-03-01T07:56:47;9.97;;;6.07;;
13197;SDS011;6664;52.514;13.440;2023-03-01T07:59:36;9.77;;;6.77;;
13197;SDS011;6664;52.514;13.440;2023-03-01T08:02:22;13.47;;;7.10;;
13197;SDS011;6664;52.514;13.440;2023-03-01T08:05:08;9.20;;;6.20;;
13197;SDS011;6664;52.514;13.440;2023-03-01T08:07:55;10.77;;;6.43;;
13197;SDS011;6664;52.514;13.440;2023-03-01T08:10:43;11.50;;;6.10;;
13197;SDS011;6664;52.514;13.440;2023-03-01T08:13:29;10.63;;;7.67;;
13197;SDS011;6664;52.514;13.440;2023-03-01T08:16:15;10.30;;;7.20;;
13197;SDS011;6664;52.514;13.440;2023-03-01T08:19:12;7.60;;;6.43;;
13197;SDS011;6664;52.514;13.440;2023-03-01T08:21:58;11.67;;;6.97;;
13197;SDS011;6664;52.514;13.440;2023-03-01T08:24:44;13.57;;;6.53;;
13197;SDS011;6664;52.514;13.440;2023-03-01T08:27:30;8.37;;;6.03;;
13197;SDS011;6664;52.514;13.440;2023-03-01T08:30:15;7.10;;;5.27;;
13197;SDS011;6664;52.514;13.440;2023-03-01T08:33:02;8.23;;;5.83;;
13197;SDS011;6664;52.514;13.440;2023-03-01T08:35:48;8.60;;;5.87;;
13197;SDS011;6664;52.514;13.440;2023-03-01T08:38:34;5.67;;;4.60;;
13197;SDS011;6664;52.514;13.440;2023-03-01T08:41:20;8.00;;;4.77;;
13197;SDS011;6664;52.514;13.440;2023-03-01T08:44:05;13.60;;;4.40;;
13197;SDS011;6664;52.514;13.440;2023-03-01T08:46:53;5.67;;;4.23;;
13197;SDS011;6664;52.514;13.440;2023-03-01T08:49:43;4.80;;;4.30;;
13197;SDS011;6664;52.514;13.440;2023-03-01T08:52:28;8.27;;;4.07;;
13197;SDS011;6664;52.514;13.440;2023-03-01T08:55:14;8.13;;;4.57;;
13197;SDS011;6664;52.514;13.440;2023-03-01T08:58:01;5.00;;;4.13;;
13197;SDS011;6664;52.514;13.440;2023-03-01T09:00:47;3.73;;;3.07;;
13197;SDS011;6664;52.514;13.440;2023-03-01T09:03:32;6.13;;;3.27;;
13197;SDS011;6664;52.514;13.440;2023-03-01T09:06:21;4.90;;;2.83;;
13197;SDS011;6664;52.514;13.440;2023-03-01T09:09:07;4.00;;;2.87;;
13197;SDS011;6664;52.514;13.440;2023-03-01T09:12:00;6.53;;;2.70;;
13197;SDS011;6664;52.514;13.440;2023-03-01T09:14:46;3.50;;;3.20;;
13197;SDS011;6664;52.514;13.440;2023-03-01T09:17:32;5.33;;;3.17;;
13197;SDS011;6664;52.514;13.440;2023-03-01T09:20:17;4.60;;;2.77;;
13197;SDS011;6664;52.514;13.440;2023-03-01T09:23:03;4.20;;;2.77;;
13197;SDS011;6664;52.514;13.440;2023-03-01T09:25:51;5.93;;;3.73;;
13197;SDS011;6664;52.514;13.440;2023-03-01T09:28:38;3.50;;;3.07;;
13197;SDS011;6664;52.514;13.440;2023-03-01T09:31:26;6.90;;;3.07;;
13197;SDS011;6664;52.514;13.440;2023-03-01T09:34:12;5.33;;;2.87;;
13197;SDS011;6664;52.514;13.440;2023-03-01T09:37:00;6.00;;;3.13;;
13197;SDS011;6664;52.514;13.440;2023-03-01T09:39:49;3.43;;;2.63;;
13197;SDS011;6664;52.514;13.440;2023-03-01T09:42:34;2.50;;;2.17;;
13197;SDS011;6664;52.514;13.440;2023-03-01T09:45:34;2.53;;;1.97;;
13197;SDS011;6664;52.514;13.440;2023-03-01T09:48:23;4.93;;;2.23;;
13197;SDS011;6664;52.514;13.440;2023-03-01T09:51:17;2.43;;;2.20;;
13197;SDS011;6664;52.514;13.440;2023-03-01T09:54:12;2.50;;;1.90;;
13197;SDS011;6664;52.514;13.440;2023-03-01T09:57:04;2.40;;;2.10;;
13197;SDS011;6664;52.514;13.440;2023-03-01T09:59:59;1.77;;;1.67;;
13197;SDS011;6664;52.514;13.440;2023-03-01T10:06:10;4.57;;;2.80;;
13197;SDS011;6664;52.514;13.440;2023-03-01T10:09:17;2.60;;;2.30;;
13197;SDS011;6664;52.514;13.440;2023-03-01T10:12:04;3.50;;;2.40;;
13197;SDS011;6664;52.514;13.440;2023-03-01T10:18:01;3.23;;;2.70;;
13197;SDS011;6664;52.514;13.440;2023-03-01T10:23:42;3.13;;;2.40;;
13197;SDS011;6664;52.514;13.440;2023-03-01T10:33:10;6.30;;;2.20;;
13197;SDS011;6664;52.514;13.440;2023-03-01T10:36:05;2.43;;;2.23;;
13197;SDS011;6664;52.514;13.440;2023-03-01T10:38:55;2.47;;;2.27;;
13197;SDS011;6664;52.514;13.440;2023-03-01T10:44:44;2.73;;;2.40;;
13197;SDS011;6664;52.514;13.440;2023-03-01T10:47:31;4.90;;;2.33;;
13197;SDS011;6664;52.514;13.440;2023-03-01T10:50:18;3.10;;;2.00;;
13197;SDS011;6664;52.514;13.440;2023-03-01T10:56:14;2.23;;;1.97;;
13197;SDS011;6664;52.514;13.440;2023-03-01T10:59:03;13.23;;;2.50;;
13197;SDS011;6664;52.514;13.440;2023-03-01T11:02:00;1.60;;;1.50;;
13197;SDS011;6664;52.514;13.440;2023-03-01T11:04:57;1.90;;;1.63;;
13197;SDS011;6664;52.514;13.440;2023-03-01T11:07:49;4.03;;;1.97;;
13197;SDS011;6664;52.514;13.440;2023-03-01T11:10:41;1.80;;;1.23;;
13197;SDS011;6664;52.514;13.440;2023-03-01T11:13:29;1.70;;;1.60;;
13197;SDS011;6664;52.514;13.440;2023-03-01T11:16:15;2.60;;;1.80;;
13197;SDS011;6664;52.514;13.440;2023-03-01T11:22:07;5.63;;;1.97;;
13197;SDS011;6664;52.514;13.440;2023-03-01T11:24:56;1.63;;;1.53;;
13197;SDS011;6664;52.514;13.440;2023-03-01T11:27:54;2.13;;;1.70;;
13197;SDS011;6664;52.514;13.440;2023-03-01T11:30:50;2.10;;;1.40;;
13197;SDS011;6664;52.514;13.440;2023-03-01T11:36:52;4.80;;;2.13;;
13197;SDS011;6664;52.514;13.440;2023-03-01T11:39:47;2.07;;;1.40;;
13197;SDS011;6664;52.514;13.440;2023-03-01T11:51:56;2.20;;;1.60;;
13197;SDS011;6664;52.514;13.440;2023-03-01T11:55:19;6.27;;;1.33;;
13197;SDS011;6664;52.514;13.440;2023-03-01T12:01:41;4.17;;;1.30;;
13197;SDS011;6664;52.514;13.440;2023-03-01T12:07:50;2.00;;;1.43;;
13197;SDS011;6664;52.514;13.440;2023-03-01T12:10:43;1.30;;;1.20;;
13197;SDS011;6664;52.514;13.440;2023-03-01T12:13:49;2.70;;;1.50;;
13197;SDS011;6664;52.514;13.440;2023-03-01T12:20:06;3.50;;;1.37;;
13197;SDS011;6664;52.514;13.440;2023-03-01T12:23:20;2.27;;;1.77;;
13197;SDS011;6664;52.514;13.440;2023-03-01T12:39:04;1.30;;;1.20;;
13197;SDS011;6664;52.514;13.440;2023-03-01T12:51:28;1.33;;;1.23;;
13197;SDS011;6664;52.514;13.440;2023-03-01T12:54:20;1.20;;;1.10;;
13197;SDS011;6664;52.514;13.440;2023-03-01T13:00:32;1.30;;;1.20;;
13197;SDS011;6664;52.514;13.440;2023-03-01T13:06:43;1.60;;;1.50;;
13197;SDS011;6664;52.514;13.440;2023-03-01T13:09:41;1.80;;;1.30;;
13197;SDS011;6664;52.514;13.440;2023-03-01T13:15:57;2.30;;;1.80;;
13197;SDS011;6664;52.514;13.440;2023-03-01T13:19:11;1.10;;;1.10;;
13197;SDS011;6664;52.514;13.440;2023-03-01T13:22:01;3.00;;;1.87;;
13197;SDS011;6664;52.514;13.440;2023-03-01T13:25:18;3.00;;;1.80;;
13197;SDS011;6664;52.514;13.440;2023-03-01T13:34:39;3.17;;;1.90;;
13197;SDS011;6664;52.514;13.440;2023-03-01T13:37:34;2.10;;;1.50;;
13197;SDS011;6664;52.514;13.440;2023-03-01T13:46:32;1.93;;;1.73;;
13197;SDS011;6664;52.514;13.440;2023-03-01T13:49:20;2.13;;;1.90;;
13197;SDS011;6664;52.514;13.440;2023-03-01T13:55:37;2.40;;;1.30;;
13197;SDS011;6664;52.514;13.440;2023-03-01T13:58:28;2.07;;;1.80;;
13197;SDS011;6664;52.514;13.440;2023-03-01T14:01:27;2.27;;;2.03;;
13197;SDS011;6664;52.514;13.440;2023-03-01T14:04:27;3.50;;;1.97;;
13197;SDS011;6664;52.514;13.440;2023-03-01T14:07:20;2.37;;;1.70;;
13197;SDS011;6664;52.514;13.440;2023-03-01T14:10:11;2.00;;;1.80;;
13197;SDS011;6664;52.514;13.440;2023-03-01T14:13:07;3.10;;;2.67;;
13197;SDS011;6664;52.514;13.440;2023-03-01T14:19:15;1.50;;;1.40;;
13197;SDS011;6664;52.514;13.440;2023-03-01T14:25:17;2.33;;;1.70;;
13197;SDS011;6664;52.514;13.440;2023-03-01T14:28:18;1.40;;;1.30;;
13197;SDS011;6664;52.514;13.440;2023-03-01T14:34:38;1.90;;;1.77;;
13197;SDS011;6664;52.514;13.440;2023-03-01T14:40:26;2.73;;;2.00;;
13197;SDS011;6664;52.514;13.440;2023-03-01T14:43:16;2.70;;;1.63;;
13197;SDS011;6664;52.514;13.440;2023-03-01T14:46:16;3.57;;;1.97;;
13197;SDS011;6664;52.514;13.440;2023-03-01T14:49:14;1.67;;;1.40;;
13197;SDS011;6664;52.514;13.440;2023-03-01T14:52:03;1.60;;;1.50;;
13197;SDS011;6664;52.514;13.440;2023-03-01T14:55:03;2.83;;;1.63;;
13197;SDS011;6664;52.514;13.440;2023-03-01T14:57:52;2.90;;;1.67;;
13197;SDS011;6664;52.514;13.440;2023-03-01T15:00:47;3.23;;;2.53;;
13197;SDS011;6664;52.514;13.440;2023-03-01T15:03:41;1.73;;;1.63;;
13197;SDS011;6664;52.514;13.440;2023-03-01T15:06:32;2.20;;;2.00;;
13197;SDS011;6664;52.514;13.440;2023-03-01T15:09:21;3.87;;;1.80;;
13197;SDS011;6664;52.514;13.440;2023-03-01T15:19:15;2.60;;;1.90;;
13197;SDS011;6664;52.514;13.440;2023-03-01T15:21:51;3.17;;;1.70;;
13197;SDS011;6664;52.514;13.440;2023-03-01T15:24:37;2.00;;;1.80;;
13197;SDS011;6664;52.514;13.440;2023-03-01T15:27:25;2.23;;;1.37;;
13197;SDS011;6664;52.514;13.440;2023-03-01T15:30:17;1.17;;;1.17;;
13197;SDS011;6664;52.514;13.440;2023-03-01T15:36:33;1.40;;;1.30;;
13197;SDS011;6664;52.514;13.440;2023-03-01T15:39:42;2.80;;;1.40;;
13197;SDS011;6664;52.514;13.440;2023-03-01T15:42:42;1.40;;;1.30;;
13197;SDS011;6664;52.514;13.440;2023-03-01T15:45:28;1.80;;;1.43;;
13197;SDS011;6664;52.514;13.440;2023-03-01T15:48:17;3.10;;;1.83;;
13197;SDS011;6664;52.514;13.440;2023-03-01T15:51:04;9.30;;;2.10;;
13197;SDS011;6664;52.514;13.440;2023-03-01T15:53:57;2.30;;;1.23;;
13197;SDS011;6664;52.514;13.440;2023-03-01T15:56:45;5.50;;;1.67;;
13197;SDS011;6664;52.514;13.440;2023-03-01T15:59:30;2.00;;;1.50;;
13197;SDS011;6664;52.514;13.440;2023-03-01T16:02:18;3.23;;;1.43;;
13197;SDS011;6664;52.514;13.440;2023-03-01T16:05:09;1.67;;;1.57;;
13197;SDS011;6664;52.514;13.440;2023-03-01T16:08:06;3.47;;;1.50;;
13197;SDS011;6664;52.514;13.440;2023-03-01T16:10:52;1.80;;;1.70;;
13197;SDS011;6664;52.514;13.440;2023-03-01T16:13:42;1.77;;;1.40;;
13197;SDS011;6664;52.514;13.440;2023-03-01T16:16:30;3.10;;;1.80;;
13197;SDS011;6664;52.514;13.440;2023-03-01T16:19:17;2.27;;;1.60;;
13197;SDS011;6664;52.514;13.440;2023-03-01T16:22:02;3.37;;;1.37;;
13197;SDS011;6664;52.514;13.440;2023-03-01T16:24:48;8.70;;;1.90;;
13197;SDS011;6664;52.514;13.440;2023-03-01T16:27:35;1.40;;;1.30;;
13197;SDS011;6664;52.514;13.440;2023-03-01T16:30:21;3.40;;;1.50;;
13197;SDS011;6664;52.514;13.440;2023-03-01T16:33:07;1.73;;;1.60;;
13197;SDS011;6664;52.514;13.440;2023-03-01T16:36:13;1.93;;;1.77;;
13197;SDS011;6664;52.514;13.440;2023-03-01T16:39:02;2.10;;;1.67;;
13197;SDS011;6664;52.514;13.440;2023-03-01T16:41:48;2.90;;;1.57;;
13197;SDS011;6664;52.514;13.440;2023-03-01T16:44:34;1.57;;;1.47;;
13197;SDS011;6664;52.514;13.440;2023-03-01T16:47:19;2.40;;;1.67;;
13197;SDS011;6664;52.514;13.440;2023-03-01T16:50:10;2.10;;;1.77;;
13197;SDS011;6664;52.514;13.440;2023-03-01T16:52:58;2.60;;;1.77;;
13197;SDS011;6664;52.514;13.440;2023-03-01T16:55:43;1.70;;;1.40;;
13197;SDS011;6664;52.514;13.440;2023-03-01T16:58:37;4.20;;;1.70;;
13197;SDS011;6664;52.514;13.440;2023-03-01T17:01:25;7.70;;;1.70;;
13197;SDS011;6664;52.514;13.440;2023-03-01T17:04:11;3.90;;;1.97;;
13197;SDS011;6664;52.514;13.440;2023-03-01T17:06:57;6.10;;;1.97;;
13197;SDS011;6664;52.514;13.440;2023-03-01T17:09:43;2.30;;;1.60;;
13197;SDS011;6664;52.514;13.440;2023-03-01T17:12:28;2.90;;;1.40;;
13197;SDS011;6664;52.514;13.440;2023-03-01T17:15:14;1.93;;;1.50;;
13197;SDS011;6664;52.514;13.440;2023-03-01T17:17:59;4.30;;;1.77;;
13197;SDS011;6664;52.514;13.440;2023-03-01T17:20:45;3.20;;;1.93;;
13197;SDS011;6664;52.514;13.440;2023-03-01T17:23:33;2.83;;;2.00;;
13197;SDS011;6664;52.514;13.440;2023-03-01T17:26:20;2.40;;;2.20;;
13197;SDS011;6664;52.514;13.440;2023-03-01T17:29:06;3.70;;;2.30;;
13197;SDS011;6664;52.514;13.440;2023-03-01T17:31:54;4.43;;;2.70;;
13197;SDS011;6664;52.514;13.440;2023-03-01T17:34:40;5.67;;;3.40;;
13197;SDS011;6664;52.514;13.440;2023-03-01T17:37:29;11.43;;;2.90;;
13197;SDS011;6664;52.514;13.440;2023-03-01T17:40:18;6.80;;;2.60;;
13197;SDS011;6664;52.514;13.440;2023-03-01T17:43:04;3.90;;;2.40;;
13197;SDS011;6664;52.514;13.440;2023-03-01T17:45:49;6.63;;;2.90;;
13197;SDS011;6664;52.514;13.440;2023-03-01T17:48:36;2.27;;;1.93;;
13197;SDS011;6664;52.514;13.440;2023-03-01T17:51:22;4.77;;;3.20;;
13197;SDS011;6664;52.514;13.440;2023-03-01T17:54:09;5.60;;;2.53;;
13197;SDS011;6664;52.514;13.440;2023-03-01T17:56:57;3.40;;;2.20;;
13197;SDS011;6664;52.514;13.440;2023-03-01T17:59:44;4.03;;;2.60;;
13197;SDS011;6664;52.514;13.440;2023-03-01T18:02:32;6.27;;;2.67;;
13197;SDS011;6664;52.514;13.440;2023-03-01T18:05:18;3.27;;;2.27;;
13197;SDS011;6664;52.514;13.440;2023-03-01T18:08:04;8.47;;;2.67;;
13197;SDS011;6664;52.514;13.440;2023-03-01T18:10:58;6.23;;;2.47;;
13197;SDS011;6664;52.514;13.440;2023-03-01T18:13:44;7.97;;;3.10;;
13197;SDS011;6664;52.514;13.440;2023-03-01T18:16:31;4.77;;;2.23;;
13197;SDS011;6664;52.514;13.440;2023-03-01T18:19:18;5.20;;;3.40;;
13197;SDS011;6664;52.514;13.440;2023-03-01T18:22:05;3.03;;;2.30;;
13197;SDS011;6664;52.514;13.440;2023-03-01T18:24:52;3.20;;;2.70;;
13197;SDS011;6664;52.514;13.440;2023-03-01T18:27:40;3.10;;;2.20;;
13197;SDS011;6664;52.514;13.440;2023-03-01T18:30:26;4.30;;;2.63;;
13197;SDS011;6664;52.514;13.440;2023-03-01T18:33:12;5.83;;;2.53;;
13197;SDS011;6664;52.514;13.440;2023-03-01T18:35:58;4.00;;;2.67;;
13197;SDS011;6664;52.514;13.440;2023-03-01T18:38:44;4.40;;;2.70;;
13197;SDS011;6664;52.514;13.440;2023-03-01T18:41:31;4.63;;;2.70;;
13197;SDS011;6664;52.514;13.440;2023-03-01T18:44:17;5.37;;;3.13;;
13197;SDS011;6664;52.514;13.440;2023-03-01T18:47:05;4.40;;;3.03;;
13197;SDS011;6664;52.514;13.440;2023-03-01T18:49:50;5.17;;;2.97;;
13197;SDS011;6664;52.514;13.440;2023-03-01T18:52:37;7.43;;;3.10;;
13197;SDS011;6664;52.514;13.440;2023-03-01T18:55:24;4.40;;;2.43;;
13197;SDS011;6664;52.514;13.440;2023-03-01T18:58:10;6.17;;;3.27;;
13197;SDS011;6664;52.514;13.440;2023-03-01T19:00:55;4.60;;;3.10;;
13197;SDS011;6664;52.514;13.440;2023-03-01T19:03:40;11.03;;;3.37;;
13197;SDS011;6664;52.514;13.440;2023-03-01T19:06:27;9.57;;;3.70;;
13197;SDS011;6664;52.514;13.440;2023-03-01T19:09:19;10.47;;;3.23;;
13197;SDS011;6664;52.514;13.440;2023-03-01T19:12:05;7.53;;;3.90;;